createdAt,value
2023-01-22T00:01:33.029Z,33.85
2023-01-22T00:04:01.868Z,33.94
2023-01-22T00:06:32.207Z,33.93
2023-01-22T00:09:04.088Z,33.80
2023-01-22T00:11:33.075Z,33.70
2023-01-22T00:14:01.811Z,33.86
2023-01-22T00:16:30.350Z,33.84
2023-01-22T00:18:59.183Z,33.91
2023-01-22T00:21:27.990Z,33.92
2023-01-22T00:23:56.810Z,34.04
2023-01-22T00:26:25.191Z,34.09
2023-01-22T00:28:54.613Z,34.02
2023-01-22T00:31:24.461Z,33.90
2023-01-22T00:34:09.018Z,34.18
2023-01-22T00:36:38.231Z,34.10
2023-01-22T00:39:06.535Z,33.91
2023-01-22T00:41:38.180Z,33.50
2023-01-22T00:44:06.769Z,33.59
2023-01-22T00:46:35.642Z,33.86
2023-01-22T00:49:04.067Z,33.79
2023-01-22T00:51:33.931Z,33.94
2023-01-22T00:54:02.659Z,33.68
2023-01-22T00:56:32.708Z,33.21
2023-01-22T00:59:01.395Z,33.35
2023-01-22T01:01:30.158Z,33.64
2023-01-22T01:03:59.119Z,33.54
2023-01-22T01:06:29.403Z,33.60
2023-01-22T01:09:02.201Z,33.71
2023-01-22T01:11:32.390Z,33.52
2023-01-22T01:14:02.008Z,33.71
2023-01-22T01:16:32.125Z,33.63
2023-01-22T01:19:02.770Z,33.80
2023-01-22T01:21:31.668Z,33.81
2023-01-22T01:24:01.238Z,33.61
2023-01-22T01:26:30.163Z,33.64
2023-01-22T01:28:58.558Z,33.67
2023-01-22T01:31:28.371Z,33.93
2023-01-22T01:33:59.129Z,33.65
2023-01-22T01:36:47.200Z,34.09
2023-01-22T01:39:16.418Z,33.83
2023-01-22T01:41:45.228Z,33.73
2023-01-22T01:44:20.889Z,33.75
2023-01-22T01:47:01.357Z,33.62
2023-01-22T01:49:37.452Z,33.71
2023-01-22T01:52:09.896Z,33.90
2023-01-22T01:54:40.577Z,33.73
2023-01-22T01:57:13.222Z,33.96
2023-01-22T01:59:41.671Z,33.83
2023-01-22T02:02:10.654Z,33.80
2023-01-22T02:04:39.249Z,33.90
2023-01-22T02:07:08.081Z,34.15
2023-01-22T02:09:36.437Z,33.93
2023-01-22T02:12:05.534Z,33.93
2023-01-22T02:14:37.420Z,34.05
2023-01-22T02:17:16.721Z,33.99
2023-01-22T02:19:45.128Z,34.05
2023-01-22T02:22:24.607Z,34.14
2023-01-22T02:24:53.003Z,33.96
2023-01-22T02:27:21.815Z,34.06
2023-01-22T02:29:51.563Z,33.84
2023-01-22T02:32:20.400Z,34.15
2023-01-22T02:34:48.761Z,34.07
2023-01-22T02:37:17.551Z,34.03
2023-01-22T02:39:45.878Z,34.17
2023-01-22T02:42:14.942Z,34.04
2023-01-22T02:44:44.626Z,34.08
2023-01-22T02:47:14.760Z,34.08
2023-01-22T02:49:43.088Z,34.10
2023-01-22T02:52:13.141Z,34.21
2023-01-22T02:54:41.539Z,34.06
2023-01-22T02:57:10.260Z,34.18
2023-01-22T02:59:38.717Z,34.19
2023-01-22T03:02:11.794Z,34.13
2023-01-22T03:04:40.358Z,34.12
2023-01-22T03:07:11.499Z,34.13
2023-01-22T03:09:39.890Z,33.96
2023-01-22T03:12:09.577Z,34.21
2023-01-22T03:14:57.559Z,34.12
2023-01-22T03:17:45.037Z,34.22
2023-01-22T03:20:32.090Z,34.36
2023-01-22T03:23:00.868Z,34.28
2023-01-22T03:25:29.249Z,34.23
2023-01-22T03:28:08.886Z,34.14
2023-01-22T03:30:39.422Z,34.20
2023-01-22T03:33:09.699Z,34.34
2023-01-22T03:35:39.454Z,34.29
2023-01-22T03:38:19.200Z,34.29
2023-01-22T03:40:48.018Z,34.28
2023-01-22T03:43:16.828Z,34.30
2023-01-22T03:45:45.277Z,34.43
2023-01-22T03:48:17.079Z,34.49
2023-01-22T03:50:45.571Z,34.27
2023-01-22T03:53:15.548Z,34.52
2023-01-22T03:55:43.969Z,34.52
2023-01-22T03:58:12.982Z,34.33
2023-01-22T04:00:41.525Z,34.08
2023-01-22T04:03:10.745Z,34.41
2023-01-22T04:05:41.574Z,34.49
2023-01-22T04:08:10.328Z,34.32
2023-01-22T04:10:43.489Z,34.46
2023-01-22T04:13:13.827Z,34.53
2023-01-22T04:15:45.890Z,34.59
2023-01-22T04:18:27.983Z,34.57
2023-01-22T04:21:16.335Z,34.41
2023-01-22T04:23:52.610Z,34.46
2023-01-22T04:26:21.774Z,34.50
2023-01-22T04:28:50.674Z,34.44
2023-01-22T04:31:22.347Z,34.46
2023-01-22T04:34:01.577Z,34.53
2023-01-22T04:36:33.599Z,34.55
2023-01-22T04:39:02.419Z,34.65
2023-01-22T04:41:30.928Z,34.54
2023-01-22T04:43:59.742Z,34.58
2023-01-22T04:46:30.098Z,34.48
2023-01-22T04:48:59.142Z,34.61
2023-01-22T04:51:27.836Z,34.67
2023-01-22T04:53:56.839Z,34.63
2023-01-22T04:56:25.489Z,34.64
2023-01-22T04:58:54.262Z,34.80
2023-01-22T05:01:23.294Z,34.83
2023-01-22T05:03:52.431Z,34.61
2023-01-22T05:06:21.832Z,35.07
2023-01-22T05:08:50.661Z,34.79
2023-01-22T05:11:19.069Z,34.59
2023-01-22T05:13:58.442Z,34.44
2023-01-22T05:16:27.210Z,34.12
2023-01-22T05:18:56.169Z,34.01
2023-01-22T05:21:24.541Z,33.85
2023-01-22T05:23:53.625Z,33.55
2023-01-22T05:26:22.229Z,33.51
2023-01-22T05:28:56.085Z,33.31
2023-01-22T05:31:42.983Z,33.07
2023-01-22T05:34:26.102Z,33.05
2023-01-22T05:36:54.699Z,32.85
2023-01-22T05:39:25.913Z,32.62
2023-01-22T05:41:56.256Z,32.74
2023-01-22T05:44:26.513Z,32.36
2023-01-22T05:46:56.980Z,32.43
2023-01-22T05:49:34.419Z,32.38
2023-01-22T05:52:02.947Z,32.25
2023-01-22T05:54:31.748Z,32.12
2023-01-22T05:57:01.384Z,32.14
2023-01-22T05:59:31.167Z,31.89
2023-01-22T06:02:04.255Z,32.17
2023-01-22T06:04:35.060Z,31.86
2023-01-22T06:07:08.639Z,31.71
2023-01-22T06:09:38.762Z,31.62
2023-01-22T06:12:07.641Z,31.60
2023-01-22T06:14:37.613Z,31.49
2023-01-22T06:17:07.831Z,31.43
2023-01-22T06:19:40.661Z,31.21
2023-01-22T06:22:11.089Z,31.17
2023-01-22T06:24:48.400Z,31.45
2023-01-22T06:27:18.909Z,31.20
2023-01-22T06:30:01.843Z,31.25
2023-01-22T06:32:30.903Z,31.26
2023-01-22T06:35:02.600Z,31.26
2023-01-22T06:37:31.068Z,30.75
2023-01-22T06:40:00.639Z,30.94
2023-01-22T06:42:42.054Z,30.83
2023-01-22T06:45:11.378Z,30.75
2023-01-22T06:47:46.005Z,30.81
2023-01-22T06:50:16.082Z,30.74
2023-01-22T06:52:44.642Z,30.28
2023-01-22T06:55:13.393Z,30.58
2023-01-22T06:57:41.903Z,30.45
2023-01-22T07:00:11.452Z,30.71
2023-01-22T07:02:41.547Z,30.85
2023-01-22T07:05:11.423Z,30.89
2023-01-22T07:07:39.793Z,30.98
2023-01-22T07:10:10.211Z,31.24
2023-01-22T07:12:38.684Z,31.46
2023-01-22T07:15:08.147Z,31.66
2023-01-22T07:17:37.754Z,31.86
2023-01-22T07:20:06.863Z,31.91
2023-01-22T07:22:35.341Z,32.00
2023-01-22T07:25:04.357Z,32.09
2023-01-22T07:27:35.105Z,32.19
2023-01-22T07:30:06.859Z,32.16
2023-01-22T07:32:36.023Z,32.02
2023-01-22T07:35:05.202Z,31.92
2023-01-22T07:37:33.678Z,32.08
2023-01-22T07:40:03.042Z,32.32
2023-01-22T07:42:31.530Z,32.21
2023-01-22T07:45:00.357Z,32.18
2023-01-22T07:47:28.848Z,32.36
2023-01-22T07:49:57.611Z,32.37
2023-01-22T07:52:26.027Z,32.42
2023-01-22T07:54:55.780Z,32.43
2023-01-22T07:57:24.316Z,32.50
2023-01-22T07:59:53.092Z,32.50
2023-01-22T08:02:21.513Z,32.50
2023-01-22T08:04:50.243Z,32.69
2023-01-22T08:07:19.635Z,32.50
2023-01-22T08:09:48.274Z,32.75
2023-01-22T08:12:16.684Z,32.81
2023-01-22T08:14:45.476Z,32.85
2023-01-22T08:17:14.653Z,33.00
2023-01-22T08:19:44.389Z,33.09
2023-01-22T08:22:12.882Z,33.09
2023-01-22T08:24:43.135Z,33.29
2023-01-22T08:27:12.633Z,33.36
2023-01-22T08:29:41.271Z,33.33
2023-01-22T08:32:09.816Z,33.40
2023-01-22T08:34:38.612Z,33.84
2023-01-22T08:37:07.650Z,34.07
2023-01-22T08:39:36.407Z,34.07
2023-01-22T08:42:04.851Z,34.17
2023-01-22T08:44:33.661Z,34.38
2023-01-22T08:47:02.010Z,34.29
2023-01-22T08:49:32.005Z,34.58
2023-01-22T08:52:00.793Z,34.50
2023-01-22T08:54:30.539Z,34.58
2023-01-22T08:56:58.941Z,34.75
2023-01-22T08:59:29.970Z,34.60
2023-01-22T09:02:00.283Z,34.86
2023-01-22T09:04:29.240Z,34.74
2023-01-22T09:06:57.681Z,35.24
2023-01-22T09:09:26.446Z,35.67
2023-01-22T09:11:54.930Z,36.64
2023-01-22T09:14:23.861Z,37.49
2023-01-22T09:16:52.324Z,37.94
2023-01-22T09:19:21.081Z,38.60
2023-01-22T09:21:49.570Z,39.00
2023-01-22T09:24:18.357Z,39.98
2023-01-22T09:26:46.789Z,39.86
2023-01-22T09:29:15.702Z,40.18
2023-01-22T09:31:44.168Z,40.43
2023-01-22T09:34:12.951Z,40.45
2023-01-22T09:36:43.132Z,40.49
2023-01-22T09:39:11.888Z,40.78
2023-01-22T09:41:43.428Z,40.45
2023-01-22T09:44:18.762Z,40.32
2023-01-22T09:47:04.591Z,40.37
2023-01-22T09:49:45.198Z,39.52
2023-01-22T09:52:13.561Z,40.14
2023-01-22T09:54:44.093Z,39.95
2023-01-22T09:57:30.000Z,40.13
2023-01-22T10:00:00.990Z,39.79
2023-01-22T10:02:42.695Z,39.98
2023-01-22T10:05:23.555Z,39.62
2023-01-22T10:07:55.022Z,39.64
2023-01-22T10:10:27.062Z,38.98
2023-01-22T10:13:24.885Z,38.26
2023-01-22T10:15:55.215Z,37.80
2023-01-22T10:18:46.396Z,37.35
2023-01-22T10:21:26.569Z,36.85
2023-01-22T10:23:57.100Z,36.52
2023-01-22T10:26:25.745Z,36.34
2023-01-22T10:28:58.837Z,36.37
2023-01-22T10:31:34.508Z,36.24
2023-01-22T10:34:15.984Z,36.09
2023-01-22T10:36:52.674Z,35.80
2023-01-22T10:39:21.287Z,35.47
2023-01-22T10:41:51.282Z,35.49
2023-01-22T10:44:26.208Z,35.43
2023-01-22T10:46:55.924Z,35.33
2023-01-22T10:49:28.312Z,35.02
2023-01-22T10:52:05.559Z,34.80
2023-01-22T10:54:39.952Z,34.73
2023-01-22T10:57:25.532Z,34.65
2023-01-22T11:00:13.964Z,34.46
2023-01-22T11:02:44.683Z,34.48
2023-01-22T11:05:23.665Z,34.62
2023-01-22T11:08:06.057Z,33.53
2023-01-22T11:10:51.468Z,33.66
2023-01-22T11:13:30.582Z,33.57
2023-01-22T11:16:02.714Z,33.54
2023-01-22T11:19:00.209Z,33.64
2023-01-22T11:21:50.679Z,33.65
2023-01-22T11:24:27.149Z,33.80
2023-01-22T11:27:32.521Z,33.53
2023-01-22T11:30:37.973Z,33.58
2023-01-22T11:34:09.080Z,33.47
2023-01-22T11:37:09.637Z,33.20
2023-01-22T11:40:10.711Z,33.36
2023-01-22T11:43:21.974Z,33.40
2023-01-22T11:46:31.586Z,33.77
2023-01-22T11:49:15.342Z,34.08
2023-01-22T11:51:55.488Z,34.63
2023-01-22T11:54:47.208Z,35.11
2023-01-22T11:57:37.632Z,35.25
2023-01-22T12:00:46.230Z,35.62
2023-01-22T12:03:33.432Z,35.94
2023-01-22T12:06:24.799Z,35.98
2023-01-22T12:09:18.559Z,36.21
2023-01-22T12:12:42.729Z,36.47
2023-01-22T12:15:29.247Z,36.74
2023-01-22T12:18:23.511Z,36.84
2023-01-22T12:21:12.654Z,37.09
2023-01-22T12:23:46.728Z,37.33
2023-01-22T12:26:31.201Z,37.34
2023-01-22T12:29:29.611Z,37.46
2023-01-22T12:32:00.060Z,37.60
2023-01-22T12:34:34.651Z,37.43
2023-01-22T12:37:03.131Z,37.23
2023-01-22T12:39:37.159Z,37.38
2023-01-22T12:42:39.113Z,37.39
2023-01-22T12:45:21.454Z,37.47
2023-01-22T12:48:18.171Z,37.26
2023-01-22T12:51:05.276Z,36.83
2023-01-22T12:53:34.957Z,36.78
2023-01-22T12:56:10.696Z,37.16
2023-01-22T12:58:42.246Z,37.07
2023-01-22T13:01:14.133Z,37.18
2023-01-22T13:03:42.669Z,37.42
2023-01-22T13:06:35.455Z,37.09
2023-01-22T13:09:05.702Z,35.50
2023-01-22T13:11:39.034Z,34.33
2023-01-22T13:14:31.370Z,33.42
2023-01-22T13:17:04.227Z,33.45
2023-01-22T13:19:45.289Z,33.60
2023-01-22T13:22:23.552Z,33.89
2023-01-22T13:24:58.267Z,33.61
2023-01-22T13:27:33.517Z,33.36
2023-01-22T13:30:27.052Z,32.39
2023-01-22T13:33:14.400Z,32.79
2023-01-22T13:35:46.692Z,32.33
2023-01-22T13:38:32.952Z,32.45
2023-01-22T13:41:09.181Z,32.21
2023-01-22T13:43:39.608Z,32.75
2023-01-22T13:46:08.081Z,33.16
2023-01-22T13:48:36.834Z,33.17
2023-01-22T13:51:14.863Z,33.40
2023-01-22T13:53:54.536Z,33.82
2023-01-22T13:56:26.953Z,34.00
2023-01-22T13:59:35.531Z,33.96
2023-01-22T14:02:32.520Z,34.41
2023-01-22T14:05:01.818Z,34.47
2023-01-22T14:07:34.612Z,34.30
2023-01-22T14:10:22.809Z,34.55
2023-01-22T14:13:08.004Z,34.54
2023-01-22T14:15:38.553Z,34.55
2023-01-22T14:18:17.810Z,35.01
2023-01-22T14:20:47.561Z,35.06
2023-01-22T14:23:16.315Z,34.82
2023-01-22T14:25:50.269Z,35.26
2023-01-22T14:28:19.261Z,35.23
2023-01-22T14:30:49.012Z,35.33
2023-01-22T14:33:24.181Z,35.25
2023-01-22T14:35:53.828Z,35.40
2023-01-22T14:38:23.164Z,35.32
2023-01-22T14:40:52.311Z,35.29
2023-01-22T14:43:21.048Z,35.47
2023-01-22T14:45:51.999Z,35.36
2023-01-22T14:48:20.835Z,35.29
2023-01-22T14:50:50.239Z,35.26
2023-01-22T14:53:19.603Z,35.34
2023-01-22T14:55:49.503Z,35.21
2023-01-22T14:58:18.066Z,35.41
2023-01-22T15:00:48.068Z,35.53
2023-01-22T15:03:16.675Z,35.33
2023-01-22T15:05:45.708Z,35.38
2023-01-22T15:08:14.179Z,35.25
2023-01-22T15:10:42.993Z,35.26
2023-01-22T15:13:11.523Z,35.36
2023-01-22T15:15:40.432Z,35.44
2023-01-22T15:18:08.925Z,35.38
2023-01-22T15:20:38.342Z,35.42
2023-01-22T15:23:06.842Z,35.64
2023-01-22T15:25:36.842Z,35.56
2023-01-22T15:28:05.666Z,35.73
2023-01-22T15:30:34.614Z,35.64
2023-01-22T15:33:03.163Z,35.54
2023-01-22T15:35:33.286Z,35.88
2023-01-22T15:38:05.688Z,35.58
2023-01-22T15:40:39.690Z,35.51
2023-01-22T15:43:08.334Z,35.54
2023-01-22T15:45:37.237Z,35.61
2023-01-22T15:48:06.103Z,35.50
2023-01-22T15:50:35.112Z,35.53
2023-01-22T15:53:03.738Z,35.24
2023-01-22T15:55:32.657Z,35.12
2023-01-22T15:58:01.217Z,35.02
2023-01-22T16:00:33.322Z,34.80
2023-01-22T16:03:01.911Z,34.55
2023-01-22T16:05:30.771Z,34.46
2023-01-22T16:07:59.364Z,34.19
2023-01-22T16:10:28.202Z,34.11
2023-01-22T16:12:56.787Z,34.24
2023-01-22T16:15:25.585Z,34.01
2023-01-22T16:17:54.703Z,33.86
2023-01-22T16:20:23.664Z,33.53
2023-01-22T16:22:52.172Z,33.50
2023-01-22T16:25:21.035Z,33.49
2023-01-22T16:27:49.481Z,33.24
2023-01-22T16:30:18.912Z,33.14
2023-01-22T16:32:48.341Z,33.03
2023-01-22T16:35:19.193Z,33.00
2023-01-22T16:37:47.642Z,32.82
2023-01-22T16:40:18.669Z,32.85
2023-01-22T16:43:00.228Z,32.61
2023-01-22T16:45:29.061Z,32.42
2023-01-22T16:47:57.873Z,32.37
2023-01-22T16:50:26.847Z,32.21
2023-01-22T16:52:55.335Z,32.14
2023-01-22T16:55:24.216Z,32.07
2023-01-22T16:57:53.822Z,32.00
2023-01-22T17:00:22.820Z,31.91
2023-01-22T17:02:51.441Z,32.11
2023-01-22T17:05:21.728Z,32.17
2023-01-22T17:07:50.126Z,32.11
2023-01-22T17:10:19.231Z,32.00
2023-01-22T17:12:47.804Z,31.76
2023-01-22T17:15:18.721Z,32.08
2023-01-22T17:17:47.784Z,32.21
2023-01-22T17:20:17.130Z,32.22
2023-01-22T17:22:46.054Z,32.56
2023-01-22T17:25:15.459Z,32.63
2023-01-22T17:27:43.985Z,32.75
2023-01-22T17:30:13.491Z,32.65
2023-01-22T17:32:41.934Z,32.73
2023-01-22T17:35:11.751Z,32.74
2023-01-22T17:37:40.302Z,32.72
2023-01-22T17:40:10.481Z,32.67
2023-01-22T17:42:39.063Z,32.75
2023-01-22T17:45:09.245Z,32.84
2023-01-22T17:47:37.794Z,32.85
2023-01-22T17:50:09.571Z,32.79
2023-01-22T17:52:38.111Z,32.76
2023-01-22T17:55:07.793Z,32.80
2023-01-22T17:57:36.330Z,32.70
2023-01-22T18:00:06.079Z,32.38
2023-01-22T18:02:36.468Z,32.27
2023-01-22T18:05:05.899Z,32.18
2023-01-22T18:07:35.570Z,32.28
2023-01-22T18:10:04.960Z,32.13
2023-01-22T18:12:33.430Z,32.27
2023-01-22T18:15:02.209Z,32.04
2023-01-22T18:17:30.639Z,32.28
2023-01-22T18:19:59.454Z,32.48
2023-01-22T18:22:28.061Z,32.60
2023-01-22T18:24:59.224Z,32.54
2023-01-22T18:27:28.063Z,32.33
2023-01-22T18:29:56.864Z,32.59
2023-01-22T18:32:25.407Z,32.70
2023-01-22T18:34:55.559Z,32.79
2023-01-22T18:37:24.081Z,32.97
2023-01-22T18:39:52.969Z,32.94
2023-01-22T18:42:21.480Z,33.22
2023-01-22T18:44:50.289Z,33.37
2023-01-22T18:47:18.765Z,33.60
2023-01-22T18:49:49.503Z,33.63
2023-01-22T18:52:17.996Z,33.64
2023-01-22T18:54:46.909Z,33.81
2023-01-22T18:57:15.271Z,33.59
2023-01-22T18:59:44.114Z,33.98
2023-01-22T19:02:16.557Z,34.08
2023-01-22T19:04:47.386Z,34.05
2023-01-22T19:07:15.798Z,34.03
2023-01-22T19:09:44.619Z,34.23
2023-01-22T19:12:15.545Z,34.14
2023-01-22T19:14:44.419Z,33.79
2023-01-22T19:17:13.020Z,33.93
2023-01-22T19:19:41.909Z,33.66
2023-01-22T19:22:10.351Z,33.61
2023-01-22T19:24:39.150Z,33.63
2023-01-22T19:27:08.407Z,33.27
2023-01-22T19:29:37.259Z,33.36
2023-01-22T19:32:06.069Z,33.12
2023-01-22T19:34:34.913Z,33.10
2023-01-22T19:37:03.578Z,33.21
2023-01-22T19:39:33.109Z,33.14
2023-01-22T19:42:03.192Z,33.06
2023-01-22T19:44:33.083Z,33.17
2023-01-22T19:47:02.165Z,33.07
2023-01-22T19:49:31.093Z,33.33
2023-01-22T19:51:59.548Z,33.06
2023-01-22T19:54:28.431Z,33.25
2023-01-22T19:56:57.135Z,33.21
2023-01-22T19:59:25.992Z,33.17
2023-01-22T20:01:54.534Z,33.36
2023-01-22T20:04:26.715Z,33.52
2023-01-22T20:07:00.996Z,33.71
2023-01-22T20:09:30.480Z,33.60
2023-01-22T20:11:59.226Z,33.75
2023-01-22T20:14:34.448Z,33.80
2023-01-22T20:17:04.324Z,33.69
2023-01-22T20:19:32.891Z,33.65
2023-01-22T20:22:04.538Z,33.64
2023-01-22T20:24:34.231Z,33.72
2023-01-22T20:27:03.036Z,33.44
2023-01-22T20:29:31.549Z,33.28
2023-01-22T20:32:00.458Z,33.02
2023-01-22T20:34:29.480Z,32.94
2023-01-22T20:36:58.292Z,33.05
2023-01-22T20:39:26.895Z,32.65
2023-01-22T20:41:55.792Z,32.93
2023-01-22T20:44:24.433Z,32.53
2023-01-22T20:46:53.334Z,32.72
2023-01-22T20:49:21.748Z,32.62
2023-01-22T20:51:50.759Z,32.62
2023-01-22T20:54:19.751Z,32.92
2023-01-22T20:56:48.719Z,32.71
2023-01-22T20:59:18.725Z,32.56
2023-01-22T21:01:47.634Z,32.68
2023-01-22T21:04:16.429Z,32.92
2023-01-22T21:06:45.181Z,32.63
2023-01-22T21:09:13.943Z,32.74
2023-01-22T21:11:42.948Z,32.84
2023-01-22T21:14:16.639Z,32.94
2023-01-22T21:16:45.510Z,32.92
2023-01-22T21:19:23.771Z,32.76
2023-01-22T21:21:53.028Z,32.85
2023-01-22T21:24:21.936Z,32.82
2023-01-22T21:26:50.855Z,32.76
2023-01-22T21:29:21.423Z,32.78
2023-01-22T21:31:52.414Z,32.79
2023-01-22T21:34:23.299Z,32.69
2023-01-22T21:36:54.663Z,32.85
2023-01-22T21:39:25.176Z,32.70
2023-01-22T21:42:14.636Z,32.41
2023-01-22T21:45:02.775Z,32.15
2023-01-22T21:47:31.540Z,32.27
2023-01-22T21:50:00.180Z,32.14
2023-01-22T21:52:29.252Z,31.93
2023-01-22T21:54:57.715Z,31.74
2023-01-22T21:57:26.655Z,31.86
2023-01-22T21:59:55.058Z,31.87
2023-01-22T22:02:23.967Z,31.86
2023-01-22T22:04:52.415Z,32.07
2023-01-22T22:07:21.205Z,31.88
2023-01-22T22:09:49.703Z,31.93
2023-01-22T22:12:18.502Z,32.00
2023-01-22T22:14:46.939Z,32.08
2023-01-22T22:17:15.749Z,31.97
2023-01-22T22:19:44.196Z,32.08
2023-01-22T22:22:12.994Z,32.23
2023-01-22T22:24:41.543Z,32.15
2023-01-22T22:27:10.384Z,32.16
2023-01-22T22:29:38.886Z,32.21
2023-01-22T22:32:07.759Z,32.45
2023-01-22T22:34:36.155Z,32.60
2023-01-22T22:37:06.241Z,32.62
2023-01-22T22:39:34.764Z,32.52
2023-01-22T22:42:03.625Z,32.60
2023-01-22T22:44:32.091Z,32.85
2023-01-22T22:47:00.956Z,32.69
2023-01-22T22:49:29.375Z,32.59
2023-01-22T22:51:58.130Z,32.71
2023-01-22T22:54:26.576Z,32.87
2023-01-22T22:56:55.325Z,32.78
2023-01-22T22:59:23.776Z,33.11
2023-01-22T23:01:52.507Z,32.86
2023-01-22T23:04:20.983Z,32.98
2023-01-22T23:06:49.778Z,32.95
2023-01-22T23:09:20.139Z,32.99
2023-01-22T23:11:52.192Z,33.07
2023-01-22T23:14:20.680Z,33.20
2023-01-22T23:16:50.677Z,33.17
2023-01-22T23:19:24.775Z,33.17
2023-01-22T23:21:58.680Z,33.18
2023-01-22T23:24:27.928Z,33.18
2023-01-22T23:26:58.024Z,33.34
2023-01-22T23:29:29.669Z,33.25
2023-01-22T23:31:58.757Z,33.31
2023-01-22T23:34:27.232Z,33.35
2023-01-22T23:36:56.089Z,33.43
2023-01-22T23:39:24.543Z,33.34
2023-01-22T23:41:54.022Z,33.40
2023-01-22T23:44:22.575Z,33.41
2023-01-22T23:46:51.952Z,33.49
2023-01-22T23:49:20.413Z,33.60
2023-01-22T23:51:49.337Z,33.60
2023-01-22T23:54:17.883Z,33.67
2023-01-22T23:56:46.707Z,33.68
2023-01-22T23:59:15.167Z,33.84
